createdAt,value
2018-08-14T00:01:14.948Z,19.40
2018-08-14T00:03:44.506Z,18.17
2018-08-14T00:06:14.070Z,18.60
2018-08-14T00:08:43.589Z,18.33
2018-08-14T00:11:13.121Z,18.10
2018-08-14T00:13:42.628Z,18.97
2018-08-14T00:16:12.090Z,19.60
2018-08-14T00:18:41.601Z,18.37
2018-08-14T00:21:11.177Z,20.97
2018-08-14T00:23:40.803Z,19.33
2018-08-14T00:26:10.337Z,21.33
2018-08-14T00:28:39.917Z,22.73
2018-08-14T00:31:09.417Z,22.40
2018-08-14T00:33:38.965Z,21.27
2018-08-14T00:36:08.435Z,23.77
2018-08-14T00:38:37.917Z,20.93
2018-08-14T00:41:07.482Z,23.43
2018-08-14T00:43:37.006Z,23.33
2018-08-14T00:46:06.561Z,22.63
2018-08-14T00:48:36.049Z,23.13
2018-08-14T00:51:05.608Z,24.73
2018-08-14T00:53:35.084Z,22.70
2018-08-14T00:56:04.728Z,23.03
2018-08-14T00:58:34.288Z,23.63
2018-08-14T01:01:03.827Z,23.07
2018-08-14T01:03:33.386Z,26.37
2018-08-14T01:06:02.919Z,27.07
2018-08-14T01:08:32.476Z,24.67
2018-08-14T01:11:01.933Z,25.57
2018-08-14T01:13:31.492Z,26.47
2018-08-14T01:16:01.021Z,26.43
2018-08-14T01:18:30.613Z,28.20
2018-08-14T01:21:00.145Z,28.63
2018-08-14T01:23:29.693Z,26.87
2018-08-14T01:25:59.248Z,25.13
2018-08-14T01:28:28.806Z,27.53
2018-08-14T01:30:58.351Z,29.93
2018-08-14T01:33:27.852Z,30.73
2018-08-14T01:35:57.467Z,31.80
2018-08-14T01:38:26.979Z,29.63
2018-08-14T01:40:56.510Z,34.07
2018-08-14T01:43:25.955Z,32.00
2018-08-14T01:45:55.454Z,31.50
2018-08-14T01:48:25.006Z,33.57
2018-08-14T01:50:54.504Z,35.57
2018-08-14T01:53:24.048Z,38.27
2018-08-14T01:55:53.461Z,33.00
2018-08-14T01:58:22.966Z,38.20
2018-08-14T02:00:52.446Z,34.20
2018-08-14T02:03:21.957Z,35.30
2018-08-14T02:05:51.492Z,37.00
2018-08-14T02:08:21.028Z,35.03
2018-08-14T02:10:50.519Z,39.17
2018-08-14T02:13:19.956Z,37.13
2018-08-14T02:15:49.522Z,37.07
2018-08-14T02:18:19.037Z,42.23
2018-08-14T02:20:48.507Z,40.60
2018-08-14T02:23:18.078Z,41.53
2018-08-14T02:25:47.590Z,43.63
2018-08-14T02:28:17.091Z,43.73
2018-08-14T02:30:46.615Z,40.43
2018-08-14T02:33:16.109Z,44.87
2018-08-14T02:35:45.612Z,41.70
2018-08-14T02:38:15.184Z,43.77
2018-08-14T02:40:44.669Z,43.20
2018-08-14T02:43:14.165Z,42.33
2018-08-14T02:45:43.622Z,45.07
2018-08-14T02:48:13.139Z,41.77
2018-08-14T02:50:42.659Z,43.23
2018-08-14T02:53:12.253Z,43.83
2018-08-14T02:55:41.746Z,45.50
2018-08-14T02:58:11.213Z,44.97
2018-08-14T03:00:40.719Z,48.17
2018-08-14T03:03:10.299Z,49.10
2018-08-14T03:05:39.850Z,44.20
2018-08-14T03:08:09.404Z,44.43
2018-08-14T03:10:39.008Z,46.70
2018-08-14T03:13:08.493Z,45.90
2018-08-14T03:15:38.014Z,52.83
2018-08-14T03:18:07.818Z,48.30
2018-08-14T03:20:40.075Z,56.50
2018-08-14T03:23:10.334Z,54.67
2018-08-14T03:25:40.184Z,49.73
2018-08-14T03:28:09.606Z,53.97
2018-08-14T03:30:39.058Z,47.60
2018-08-14T03:33:08.521Z,49.07
2018-08-14T03:35:37.987Z,48.13
2018-08-14T03:38:07.536Z,43.60
2018-08-14T03:40:36.988Z,52.10
2018-08-14T03:43:06.536Z,44.57
2018-08-14T03:45:37.506Z,46.63
2018-08-14T03:48:07.476Z,44.37
2018-08-14T03:50:36.907Z,43.97
2018-08-14T03:53:07.265Z,40.30
2018-08-14T03:55:36.872Z,45.13
2018-08-14T03:58:06.419Z,46.57
2018-08-14T04:00:35.878Z,45.07
2018-08-14T04:03:05.339Z,51.07
2018-08-14T04:05:34.861Z,54.60
2018-08-14T04:08:04.322Z,51.30
2018-08-14T04:10:33.814Z,50.47
2018-08-14T04:13:03.318Z,54.03
2018-08-14T04:15:32.745Z,56.50
2018-08-14T04:18:09.416Z,55.50
2018-08-14T04:20:39.473Z,56.83
2018-08-14T04:23:08.954Z,54.93
2018-08-14T04:25:38.406Z,52.97
2018-08-14T04:28:07.958Z,51.60
2018-08-14T04:30:37.393Z,51.60
2018-08-14T04:33:06.840Z,52.10
2018-08-14T04:35:36.357Z,51.77
2018-08-14T04:38:06.074Z,46.33
2018-08-14T04:40:35.537Z,47.50
2018-08-14T04:43:05.323Z,48.47
2018-08-14T04:45:34.785Z,48.07
2018-08-14T04:48:04.662Z,47.07
2018-08-14T04:50:34.105Z,46.07
2018-08-14T04:53:04.080Z,45.77
2018-08-14T04:55:33.503Z,45.50
2018-08-14T04:58:03.002Z,43.40
2018-08-14T05:00:32.514Z,42.63
2018-08-14T05:03:02.019Z,42.83
2018-08-14T05:05:31.545Z,42.73
2018-08-14T05:08:00.975Z,43.93
2018-08-14T05:10:30.467Z,37.93
2018-08-14T05:12:59.952Z,39.43
2018-08-14T05:15:29.448Z,36.13
2018-08-14T05:17:58.854Z,38.80
2018-08-14T05:20:28.328Z,39.23
2018-08-14T05:22:57.727Z,41.77
2018-08-14T05:25:27.161Z,35.67
2018-08-14T05:27:56.582Z,33.97
2018-08-14T05:30:26.043Z,37.73
2018-08-14T05:32:55.526Z,32.77
2018-08-14T05:35:24.978Z,28.90
2018-08-14T05:37:54.435Z,28.10
2018-08-14T05:40:23.907Z,28.03
2018-08-14T05:42:53.349Z,27.23
2018-08-14T05:45:22.822Z,27.80
2018-08-14T05:47:52.303Z,29.07
2018-08-14T05:50:21.737Z,27.57
2018-08-14T05:52:51.138Z,25.83
2018-08-14T05:55:20.697Z,27.03
2018-08-14T05:57:50.129Z,26.73
2018-08-14T06:00:19.944Z,27.17
2018-08-14T06:02:49.443Z,27.67
2018-08-14T06:05:18.902Z,28.87
2018-08-14T06:07:48.349Z,26.70
2018-08-14T06:10:17.847Z,25.20
2018-08-14T06:12:47.263Z,27.67
2018-08-14T06:15:16.749Z,25.47
2018-08-14T06:17:46.162Z,29.20
2018-08-14T06:20:15.845Z,24.30
2018-08-14T06:22:45.349Z,27.03
2018-08-14T06:25:14.999Z,24.67
2018-08-14T06:27:44.365Z,26.73
2018-08-14T06:30:17.105Z,28.33
2018-08-14T06:32:47.904Z,25.77
2018-08-14T06:35:17.494Z,25.07
2018-08-14T06:37:47.077Z,29.43
2018-08-14T06:40:17.602Z,24.43
2018-08-14T06:42:47.067Z,25.43
2018-08-14T06:45:17.920Z,27.60
2018-08-14T06:47:47.624Z,28.40
2018-08-14T06:50:18.835Z,28.03
2018-08-14T06:52:48.322Z,27.23
2018-08-14T06:55:17.995Z,23.47
2018-08-14T06:57:47.852Z,25.63
2018-08-14T07:00:18.977Z,25.37
2018-08-14T07:02:49.213Z,25.80
2018-08-14T07:05:18.907Z,26.17
2018-08-14T07:07:48.386Z,25.97
2018-08-14T07:10:17.808Z,25.37
2018-08-14T07:12:47.396Z,25.30
2018-08-14T07:15:19.514Z,21.97
2018-08-14T07:17:48.991Z,21.10
2018-08-14T07:20:18.436Z,20.87
2018-08-14T07:22:47.988Z,18.57
2018-08-14T07:25:19.074Z,16.10
2018-08-14T07:27:48.685Z,18.97
2018-08-14T07:30:21.897Z,22.20
2018-08-14T07:32:51.564Z,18.73
2018-08-14T07:35:21.073Z,23.30
2018-08-14T07:37:50.490Z,18.17
2018-08-14T07:40:20.022Z,16.83
2018-08-14T07:42:49.518Z,17.37
2018-08-14T07:45:19.292Z,17.23
2018-08-14T07:47:48.740Z,15.37
2018-08-14T07:50:18.289Z,14.60
2018-08-14T07:52:47.857Z,17.90
2018-08-14T07:55:17.228Z,14.00
2018-08-14T07:57:46.675Z,14.30
2018-08-14T08:00:18.514Z,14.87
2018-08-14T08:02:48.895Z,14.03
2018-08-14T08:05:18.897Z,16.67
2018-08-14T08:07:48.685Z,11.90
2018-08-14T08:10:18.621Z,12.37
2018-08-14T08:12:48.531Z,11.40
2018-08-14T08:15:19.267Z,9.30
2018-08-14T08:17:49.167Z,10.97
2018-08-14T08:20:34.337Z,9.27
2018-08-14T08:23:05.245Z,9.77
2018-08-14T08:25:34.794Z,7.90
2018-08-14T08:28:04.279Z,8.47
2018-08-14T08:30:33.764Z,6.37
2018-08-14T08:33:03.235Z,5.37
2018-08-14T08:35:32.687Z,6.10
2018-08-14T08:38:02.234Z,7.57
2018-08-14T08:40:32.017Z,8.40
2018-08-14T08:43:01.453Z,7.40
2018-08-14T08:45:30.960Z,8.77
2018-08-14T08:48:11.547Z,8.27
2018-08-14T08:50:41.036Z,5.67
2018-08-14T08:53:12.971Z,4.10
2018-08-14T08:55:42.370Z,3.33
2018-08-14T08:58:11.897Z,2.90
2018-08-14T09:00:41.395Z,3.73
2018-08-14T09:03:19.778Z,3.70
2018-08-14T09:05:49.984Z,4.70
2018-08-14T09:08:19.401Z,5.30
2018-08-14T09:10:49.157Z,4.93
2018-08-14T09:13:18.652Z,4.90
2018-08-14T09:15:48.099Z,5.93
2018-08-14T09:18:19.637Z,5.27
2018-08-14T09:20:49.176Z,5.17
2018-08-14T09:23:18.630Z,4.87
2018-08-14T09:25:48.297Z,6.57
2018-08-14T09:28:17.790Z,5.23
2018-08-14T09:30:47.331Z,5.83
2018-08-14T09:33:16.772Z,5.40
2018-08-14T09:35:47.249Z,4.23
2018-08-14T09:38:16.701Z,3.33
2018-08-14T09:40:49.548Z,4.03
2018-08-14T09:43:19.085Z,5.07
2018-08-14T09:45:50.078Z,2.00
2018-08-14T09:48:19.589Z,3.97
2018-08-14T09:50:49.083Z,3.07
2018-08-14T09:53:18.514Z,3.43
2018-08-14T09:55:48.035Z,4.50
2018-08-14T09:58:17.969Z,2.10
2018-08-14T10:00:52.664Z,4.20
2018-08-14T10:03:27.272Z,3.37
2018-08-14T10:06:02.093Z,2.50
2018-08-14T10:08:31.610Z,2.40
2018-08-14T10:11:01.034Z,3.03
2018-08-14T10:13:30.791Z,3.97
2018-08-14T10:16:00.221Z,3.17
2018-08-14T10:18:29.906Z,4.80
2018-08-14T10:20:59.460Z,4.20
2018-08-14T10:23:30.208Z,3.40
2018-08-14T10:25:59.779Z,3.33
2018-08-14T10:28:29.239Z,3.77
2018-08-14T10:30:58.698Z,2.30
2018-08-14T10:33:28.118Z,4.57
2018-08-14T10:35:57.596Z,4.43
2018-08-14T10:38:27.046Z,3.03
2018-08-14T10:40:56.573Z,2.63
2018-08-14T10:43:26.087Z,1.70
2018-08-14T10:45:56.558Z,2.80
2018-08-14T10:48:26.947Z,3.50
2018-08-14T10:50:56.448Z,1.73
2018-08-14T10:53:25.878Z,3.30
2018-08-14T10:55:55.733Z,3.47
2018-08-14T10:58:25.186Z,3.27
2018-08-14T11:00:54.790Z,2.87
2018-08-14T11:03:24.205Z,3.07
2018-08-14T11:05:54.343Z,6.57
2018-08-14T11:08:24.994Z,1.40
2018-08-14T11:10:59.721Z,3.07
2018-08-14T11:13:29.151Z,4.43
2018-08-14T11:15:58.627Z,3.17
2018-08-14T11:18:28.060Z,3.43
2018-08-14T11:20:57.671Z,6.60
2018-08-14T11:23:27.173Z,3.97
2018-08-14T11:25:56.620Z,5.67
2018-08-14T11:28:26.119Z,2.80
2018-08-14T11:30:55.545Z,3.93
2018-08-14T11:33:27.719Z,3.57
2018-08-14T11:36:02.418Z,3.53
2018-08-14T11:38:32.276Z,2.57
2018-08-14T11:41:01.901Z,2.90
2018-08-14T11:43:31.390Z,3.83
2018-08-14T11:46:00.901Z,1.53
2018-08-14T11:48:30.806Z,1.80
2018-08-14T11:51:00.345Z,1.17
2018-08-14T11:53:29.877Z,2.23
2018-08-14T11:55:59.421Z,2.63
2018-08-14T11:58:28.900Z,0.90
2018-08-14T12:00:58.396Z,2.57
2018-08-14T12:03:27.862Z,2.00
2018-08-14T12:05:57.325Z,2.67
2018-08-14T12:08:26.775Z,1.43
2018-08-14T12:10:56.372Z,2.00
2018-08-14T12:13:25.830Z,1.80
2018-08-14T12:15:55.383Z,1.40
2018-08-14T12:18:24.905Z,1.70
2018-08-14T12:20:54.326Z,3.90
2018-08-14T12:23:23.838Z,2.50
2018-08-14T12:25:54.353Z,2.63
2018-08-14T12:28:23.866Z,2.73
2018-08-14T12:30:53.382Z,3.10
2018-08-14T12:33:22.908Z,3.73
2018-08-14T12:35:52.382Z,2.63
2018-08-14T12:38:21.868Z,2.40
2018-08-14T12:40:51.330Z,2.57
2018-08-14T12:43:20.908Z,1.70
2018-08-14T12:45:50.364Z,2.63
2018-08-14T12:48:20.291Z,2.80
2018-08-14T12:50:49.748Z,2.60
2018-08-14T12:53:20.343Z,2.20
2018-08-14T12:55:50.066Z,3.27
2018-08-14T12:58:19.559Z,3.20
2018-08-14T13:00:49.556Z,3.40
2018-08-14T13:03:19.249Z,3.27
2018-08-14T13:05:48.769Z,2.53
2018-08-14T13:08:18.233Z,3.33
2018-08-14T13:10:47.776Z,3.30
2018-08-14T13:13:17.284Z,4.83
2018-08-14T13:15:46.729Z,6.23
2018-08-14T13:18:16.738Z,3.70
2018-08-14T13:20:53.193Z,3.53
2018-08-14T13:23:22.881Z,2.67
2018-08-14T13:25:52.646Z,5.77
2018-08-14T13:28:22.106Z,3.00
2018-08-14T13:30:51.567Z,4.17
2018-08-14T13:33:31.555Z,4.33
2018-08-14T13:36:01.341Z,5.80
2018-08-14T13:38:30.810Z,6.70
2018-08-14T13:41:00.277Z,4.03
2018-08-14T13:43:29.789Z,5.33
2018-08-14T13:45:59.196Z,6.40
2018-08-14T13:48:28.638Z,7.37
2018-08-14T13:50:58.071Z,4.70
2018-08-14T13:53:27.514Z,5.37
2018-08-14T13:55:56.935Z,4.40
2018-08-14T13:58:26.413Z,5.03
2018-08-14T14:00:55.884Z,4.30
2018-08-14T14:03:25.316Z,4.43
2018-08-14T14:05:54.761Z,7.47
2018-08-14T14:08:24.168Z,4.30
2018-08-14T14:10:53.628Z,5.37
2018-08-14T14:13:23.108Z,4.73
2018-08-14T14:15:52.574Z,4.10
2018-08-14T14:18:22.020Z,5.67
2018-08-14T14:20:51.722Z,7.13
2018-08-14T14:23:21.180Z,6.03
2018-08-14T14:25:50.606Z,5.10
2018-08-14T14:28:20.088Z,6.97
2018-08-14T14:30:50.528Z,6.30
2018-08-14T14:33:20.343Z,5.67
2018-08-14T14:35:50.190Z,5.43
2018-08-14T14:38:19.657Z,7.00
2018-08-14T14:40:49.373Z,4.60
2018-08-14T14:43:20.030Z,5.50
2018-08-14T14:45:49.409Z,5.87
2018-08-14T14:48:19.035Z,5.27
2018-08-14T14:50:48.919Z,6.87
2018-08-14T14:53:18.388Z,5.00
2018-08-14T14:55:48.350Z,7.03
2018-08-14T14:58:22.276Z,6.33
2018-08-14T15:00:51.760Z,8.00
2018-08-14T15:03:21.634Z,5.57
2018-08-14T15:05:51.243Z,5.33
2018-08-14T15:08:21.003Z,5.50
2018-08-14T15:10:51.333Z,6.30
2018-08-14T15:13:21.603Z,5.10
2018-08-14T15:15:51.534Z,3.80
2018-08-14T15:18:20.990Z,5.70
2018-08-14T15:20:50.471Z,3.77
2018-08-14T15:23:21.021Z,5.63
2018-08-14T15:25:53.375Z,3.90
2018-08-14T15:29:26.416Z,4.73
2018-08-14T15:32:04.508Z,5.97
2018-08-14T15:34:35.904Z,5.73
2018-08-14T15:37:07.676Z,4.57
2018-08-14T15:39:37.189Z,5.10
2018-08-14T15:42:09.164Z,4.77
2018-08-14T15:44:40.652Z,6.40
2018-08-14T15:47:10.315Z,8.50
2018-08-14T15:49:39.964Z,5.20
2018-08-14T15:52:09.249Z,4.53
2018-08-14T15:54:38.728Z,3.77
2018-08-14T15:57:08.467Z,7.23
2018-08-14T15:59:37.962Z,5.60
2018-08-14T16:02:07.367Z,7.53
2018-08-14T16:04:37.221Z,5.17
2018-08-14T16:07:06.705Z,3.63
2018-08-14T16:09:36.173Z,4.60
2018-08-14T16:12:06.101Z,5.13
2018-08-14T16:14:36.820Z,3.30
2018-08-14T16:17:07.288Z,4.83
2018-08-14T16:19:36.717Z,5.93
2018-08-14T16:22:07.824Z,4.20
2018-08-14T16:24:37.545Z,7.37
2018-08-14T16:27:07.137Z,3.77
2018-08-14T16:29:36.517Z,6.67
2018-08-14T16:32:06.041Z,5.47
2018-08-14T16:34:38.032Z,6.40
2018-08-14T16:37:07.568Z,5.10
2018-08-14T16:39:40.844Z,3.97
2018-08-14T16:42:13.103Z,3.80
2018-08-14T16:44:43.617Z,7.07
2018-08-14T16:47:13.208Z,6.33
2018-08-14T16:49:42.756Z,5.57
2018-08-14T16:52:12.295Z,4.57
2018-08-14T16:54:41.783Z,5.30
2018-08-14T16:57:11.222Z,4.67
2018-08-14T16:59:40.622Z,4.10
2018-08-14T17:02:10.066Z,4.23
2018-08-14T17:04:39.568Z,4.27
2018-08-14T17:07:09.024Z,5.73
2018-08-14T17:09:38.481Z,5.93
2018-08-14T17:12:07.952Z,4.13
2018-08-14T17:14:37.476Z,4.40
2018-08-14T17:17:06.918Z,6.13
2018-08-14T17:19:37.879Z,4.77
2018-08-14T17:22:07.921Z,2.07
2018-08-14T17:24:37.384Z,4.73
2018-08-14T17:27:06.794Z,3.00
2018-08-14T17:29:36.319Z,3.80
2018-08-14T17:32:05.849Z,4.87
2018-08-14T17:34:35.304Z,2.90
2018-08-14T17:37:04.821Z,6.20
2018-08-14T17:39:34.290Z,3.07
2018-08-14T17:42:03.815Z,2.83
2018-08-14T17:44:33.293Z,4.30
2018-08-14T17:47:02.758Z,5.63
2018-08-14T17:49:32.198Z,4.80
2018-08-14T17:52:01.770Z,5.83
2018-08-14T17:54:31.176Z,7.00
2018-08-14T17:57:00.625Z,4.00
2018-08-14T17:59:30.031Z,7.33
2018-08-14T18:01:59.520Z,3.50
2018-08-14T18:04:29.037Z,4.80
2018-08-14T18:06:58.539Z,5.10
2018-08-14T18:09:27.986Z,6.00
2018-08-14T18:11:57.461Z,4.27
2018-08-14T18:14:26.877Z,6.03
2018-08-14T18:16:56.326Z,3.53
2018-08-14T18:19:25.750Z,5.90
2018-08-14T18:21:55.193Z,7.13
2018-08-14T18:24:24.609Z,4.40
2018-08-14T18:26:54.192Z,6.70
2018-08-14T18:29:23.656Z,8.83
2018-08-14T18:31:53.089Z,4.07
2018-08-14T18:34:22.549Z,5.60
2018-08-14T18:36:51.973Z,4.90
2018-08-14T18:39:21.421Z,7.33
2018-08-14T18:41:50.874Z,3.60
2018-08-14T18:44:20.318Z,3.27
2018-08-14T18:46:49.796Z,6.90
2018-08-14T18:49:19.230Z,4.90
2018-08-14T18:51:48.691Z,6.33
2018-08-14T18:54:18.092Z,9.23
2018-08-14T18:56:47.519Z,5.60
2018-08-14T18:59:17.011Z,4.37
2018-08-14T19:01:49.457Z,5.53
2018-08-14T19:04:22.059Z,6.93
2018-08-14T19:06:51.621Z,4.20
2018-08-14T19:09:21.036Z,3.93
2018-08-14T19:11:50.443Z,3.13
2018-08-14T19:14:19.878Z,6.93
2018-08-14T19:16:49.366Z,3.77
2018-08-14T19:19:18.897Z,4.93
2018-08-14T19:21:48.324Z,3.50
2018-08-14T19:24:17.743Z,7.47
2018-08-14T19:26:47.149Z,4.90
2018-08-14T19:29:16.636Z,5.20
2018-08-14T19:31:46.085Z,6.97
2018-08-14T19:34:15.578Z,5.07
2018-08-14T19:36:45.084Z,3.33
2018-08-14T19:39:17.273Z,6.17
2018-08-14T19:41:46.807Z,4.93
2018-08-14T19:44:19.623Z,5.20
2018-08-14T19:46:49.172Z,3.93
2018-08-14T19:49:18.584Z,4.07
2018-08-14T19:51:48.110Z,7.60
2018-08-14T19:54:17.972Z,4.17
2018-08-14T19:56:47.469Z,5.93
2018-08-14T19:59:17.078Z,3.87
2018-08-14T20:01:46.520Z,6.07
2018-08-14T20:04:15.947Z,3.53
2018-08-14T20:06:45.369Z,3.70
2018-08-14T20:09:14.849Z,7.50
2018-08-14T20:11:44.240Z,3.73
2018-08-14T20:14:15.822Z,5.87
2018-08-14T20:16:48.690Z,3.73
2018-08-14T20:19:18.209Z,5.03
2018-08-14T20:21:48.172Z,4.43
2018-08-14T20:24:17.601Z,7.07
2018-08-14T20:26:47.017Z,4.90
2018-08-14T20:29:16.758Z,5.03
2018-08-14T20:31:51.668Z,6.80
2018-08-14T20:34:26.415Z,4.77
2018-08-14T20:36:56.142Z,6.10
2018-08-14T20:39:25.580Z,8.33
2018-08-14T20:41:55.063Z,4.60
2018-08-14T20:44:24.509Z,3.73
2018-08-14T20:46:54.114Z,3.67
2018-08-14T20:49:24.222Z,4.27
2018-08-14T20:51:54.435Z,5.73
2018-08-14T20:54:23.902Z,3.17
2018-08-14T20:56:53.366Z,3.83
2018-08-14T20:59:23.600Z,3.77
2018-08-14T21:01:53.979Z,3.77
2018-08-14T21:04:24.542Z,5.47
2018-08-14T21:06:53.969Z,3.43
2018-08-14T21:09:23.361Z,5.37
2018-08-14T21:12:00.314Z,4.13
2018-08-14T21:14:30.116Z,4.17
2018-08-14T21:17:00.011Z,7.63
2018-08-14T21:19:29.426Z,6.60
2018-08-14T21:21:59.695Z,4.57
2018-08-14T21:24:29.186Z,3.40
2018-08-14T21:26:59.584Z,9.43
2018-08-14T21:29:29.042Z,4.83
2018-08-14T21:31:58.513Z,4.17
2018-08-14T21:34:27.952Z,5.73
2018-08-14T21:36:57.419Z,5.57
2018-08-14T21:39:26.859Z,4.03
2018-08-14T21:41:56.305Z,3.17
2018-08-14T21:44:25.704Z,4.87
2018-08-14T21:46:55.554Z,6.03
2018-08-14T21:49:25.284Z,3.77
2018-08-14T21:51:55.190Z,9.17
2018-08-14T21:54:24.921Z,3.47
2018-08-14T21:56:54.319Z,5.10
2018-08-14T21:59:24.726Z,5.80
2018-08-14T22:01:54.320Z,4.33
2018-08-14T22:04:24.182Z,5.03
2018-08-14T22:06:54.793Z,8.37
2018-08-14T22:09:24.863Z,3.83
2018-08-14T22:11:54.512Z,4.00
2018-08-14T22:14:24.024Z,5.40
2018-08-14T22:16:53.507Z,5.90
2018-08-14T22:19:23.810Z,7.93
2018-08-14T22:21:56.077Z,4.67
2018-08-14T22:24:27.404Z,3.50
2018-08-14T22:27:02.516Z,4.67
2018-08-14T22:29:32.024Z,4.53
2018-08-14T22:32:01.449Z,5.83
2018-08-14T22:34:32.642Z,6.23
2018-08-14T22:37:02.074Z,5.63
2018-08-14T22:39:31.511Z,3.97
2018-08-14T22:42:00.906Z,4.33
2018-08-14T22:44:30.333Z,4.77
2018-08-14T22:46:59.780Z,9.33
2018-08-14T22:49:29.175Z,7.90
2018-08-14T22:51:58.651Z,4.23
2018-08-14T22:54:28.111Z,5.80
2018-08-14T22:56:57.554Z,7.03
2018-08-14T22:59:26.963Z,7.77
2018-08-14T23:01:57.358Z,7.63
2018-08-14T23:04:27.353Z,6.83
2018-08-14T23:06:57.608Z,5.50
2018-08-14T23:09:27.010Z,4.70
2018-08-14T23:11:57.167Z,6.47
2018-08-14T23:14:27.008Z,6.20
2018-08-14T23:16:57.221Z,6.40
2018-08-14T23:19:26.981Z,4.23
2018-08-14T23:21:57.259Z,6.93
2018-08-14T23:24:27.427Z,4.77
2018-08-14T23:26:56.843Z,5.03
2018-08-14T23:29:26.221Z,5.77
2018-08-14T23:31:56.782Z,7.10
2018-08-14T23:34:26.956Z,7.87
2018-08-14T23:36:56.656Z,5.37
2018-08-14T23:39:27.168Z,5.63
2018-08-14T23:41:56.815Z,5.67
2018-08-14T23:44:26.304Z,5.00
2018-08-14T23:46:55.754Z,4.70
2018-08-14T23:49:25.271Z,5.97
2018-08-14T23:51:55.253Z,8.63
2018-08-14T23:54:25.120Z,4.97
2018-08-14T23:56:55.878Z,5.90
2018-08-14T23:59:25.409Z,6.07
